Time;durP1;ratioP1;P1;durP2;ratioP2;P2;SDS_P1;SDS_P2;PMS_P1;PMS_P2;Temp;Humidity;BMP_temperature;BMP_pressure;BME280_temperature;BME280_humidity;BME280_pressure;Samples;Min_cycle;Max_cycle;Signal;HPM_P1;HPM_P2
2022/12/30 00:02:45;;;;;;;9.07;2.07;;;;;;;7.07;86.66;100277.78;6125712;28;20290;-76
2022/12/30 00:05:41;;;;;;;9.20;2.43;;;;;;;7.15;86.26;100285.84;6128132;28;20029;-77
2022/12/30 00:08:48;;;;;;;8.32;1.70;;;;;;;7.14;86.63;100285.97;6126683;28;20090;-76
2022/12/30 00:11:44;;;;;;;;;;;;;;;7.12;86.60;100296.66;6127923;28;20063;-76
2022/12/30 00:34:09;;;;;;;;;;;;;;;7.11;86.47;100339.81;6116146;28;20083;-76
2022/12/30 00:37:05;;;;;;;6.05;1.83;;;;;;;7.02;86.40;100326.59;6159158;28;20359;-75
2022/12/30 00:40:00;;;;;;;9.37;2.00;;;;;;;7.01;85.44;100323.09;6127098;28;20075;-76
2022/12/30 00:43:10;;;;;;;10.37;2.30;;;;;;;7.09;85.82;100328.56;6125996;28;20035;-76
2022/12/30 00:46:05;;;;;;;9.15;2.03;;;;;;;7.17;85.50;100344.53;6125397;28;20286;-76
2022/12/30 00:58:43;;;;;;;10.52;1.95;;;;;;;7.14;85.08;100351.91;6125016;28;20480;-75
2022/12/30 01:01:39;;;;;;;6.55;1.95;;;;;;;7.12;84.88;100354.66;6125554;28;20044;-75
2022/12/30 01:04:34;;;;;;;10.45;2.05;;;;;;;7.21;84.08;100376.75;6124305;28;20064;-76
2022/12/30 01:07:29;;;;;;;9.53;3.07;;;;;;;7.10;84.94;100369.78;6120625;28;20593;-76
2022/12/30 01:10:25;;;;;;;10.30;2.38;;;;;;;7.01;85.03;100367.91;6124455;28;20070;-75
2022/12/30 01:13:20;;;;;;;7.63;1.60;;;;;;;6.95;84.75;100359.72;6123978;28;20036;-76
2022/12/30 01:16:17;;;;;;;16.13;1.97;;;;;;;7.11;84.84;100397.81;6124916;28;20032;-76
2022/12/30 01:19:12;;;;;;;12.48;2.05;;;;;;;7.08;84.13;100387.53;6124583;28;20433;-76
2022/12/30 01:22:08;;;;;;;7.23;2.20;;;;;;;7.13;84.30;100398.53;6123926;28;20032;-76
2022/12/30 01:25:04;;;;;;;9.52;1.88;;;;;;;7.09;83.91;100385.75;6125028;28;20036;-76
2022/12/30 01:27:59;;;;;;;7.88;1.70;;;;;;;7.15;83.92;100412.41;6114846;28;20047;-75
2022/12/30 01:30:54;;;;;;;12.37;2.23;;;;;;;6.90;84.34;100391.72;6124366;28;20036;-75
2022/12/30 01:33:50;;;;;;;6.07;1.33;;;;;;;7.13;84.22;100418.78;6123861;28;20356;-76
2022/12/30 01:36:45;;;;;;;6.03;1.60;;;;;;;7.04;84.23;100428.28;6123930;28;20577;-75
2022/12/30 01:39:40;;;;;;;6.57;2.47;;;;;;;7.01;84.26;100425.09;6123339;28;20283;-75
2022/12/30 01:42:38;;;;;;;8.93;2.47;;;;;;;7.03;84.40;100431.91;6124357;28;20050;-74
2022/12/30 01:45:33;;;;;;;6.93;1.88;;;;;;;7.02;84.75;100446.06;6124137;28;20086;-76
2022/12/30 01:48:30;;;;;;;6.93;1.80;;;;;;;6.91;84.80;100442.66;6124558;28;20488;-75
2022/12/30 01:51:28;;;;;;;8.40;2.50;;;;;;;6.86;84.55;100439.56;6123488;28;20277;-75
2022/12/30 01:54:24;;;;;;;9.30;1.95;;;;;;;6.75;85.25;100440.47;6120905;28;20051;-76
2022/12/30 01:57:20;;;;;;;10.65;2.33;;;;;;;6.76;85.59;100462.38;6120089;28;20029;-76
2022/12/30 02:00:15;;;;;;;9.77;2.07;;;;;;;6.75;85.36;100443.09;6122957;28;20064;-76
2022/12/30 02:03:11;;;;;;;10.23;2.10;;;;;;;6.79;84.97;100464.78;6123594;28;20345;-77
2022/12/30 02:06:07;;;;;;;8.00;2.28;;;;;;;6.79;84.80;100436.63;6124131;28;20177;-75
2022/12/30 02:09:02;;;;;;;6.50;1.98;;;;;;;6.88;84.57;100463.97;6116948;28;20028;-76
2022/12/30 02:11:58;;;;;;;5.83;2.00;;;;;;;6.94;84.63;100472.22;6113604;28;20043;-75
2022/12/30 02:14:54;;;;;;;8.45;2.83;;;;;;;6.97;84.62;100477.25;6115436;28;20028;-74
2022/12/30 02:18:17;;;;;;;8.88;1.90;;;;;;;7.00;84.21;100477.00;6116378;28;20440;-76
2022/12/30 02:21:36;;;;;;;10.93;2.22;;;;;;;7.00;84.29;100466.44;6122042;28;20029;-76
2022/12/30 02:24:49;;;;;;;9.05;1.85;;;;;;;7.01;83.88;100473.38;6124550;28;20032;-76
2022/12/30 02:28:18;;;;;;;7.60;2.00;;;;;;;7.01;83.79;100473.38;6123127;28;20079;-75
2022/12/30 02:31:32;;;;;;;5.18;2.08;;;;;;;6.99;83.58;100475.31;6123959;28;20033;-76
2022/12/30 02:34:27;;;;;;;;;;;;;;;7.05;83.09;100466.88;6123522;28;20510;-75
2022/12/30 02:37:32;;;;;;;8.07;2.47;;;;;;;6.92;83.02;100446.97;6123545;28;20006;-74
2022/12/30 02:44:36;;;;;;;6.70;2.17;;;;;;;6.97;83.02;100466.69;6123776;28;20044;-76
2022/12/30 02:47:34;;;;;;;4.10;1.80;;;;;;;6.83;83.54;100460.91;6123025;28;20476;-76
2022/12/30 02:53:48;;;;;;;6.30;2.10;;;;;;;6.75;83.62;100451.00;6122166;28;20503;-76
2022/12/30 02:56:48;;;;;;;6.93;2.30;;;;;;;6.72;84.06;100463.59;6118250;28;20025;-74
2022/12/30 03:06:38;;;;;;;4.13;1.75;;;;;;;6.53;85.45;100470.38;6149452;28;19924;-75
2022/12/30 03:13:21;;;;;;;11.15;2.22;;;;;;;6.52;85.48;100486.34;6120348;28;20036;-76
2022/12/30 03:16:19;;;;;;;10.45;2.45;;;;;;;6.56;85.83;100493.00;6120879;28;20028;-77
2022/12/30 03:19:21;;;;;;;7.15;2.13;;;;;;;6.52;85.81;100486.34;6122581;28;20028;-75
2022/12/30 03:28:48;;;;;;;16.00;3.03;;;;;;;6.53;86.86;100509.06;6120474;28;20040;-75
2022/12/30 03:31:44;;;;;;;6.25;1.80;;;;;;;6.59;86.42;100514.69;6123512;28;20452;-76
2022/12/30 03:34:39;;;;;;;7.35;2.58;;;;;;;6.59;86.00;100519.09;6120991;28;20028;-76
2022/12/30 03:37:44;;;;;;;9.35;2.53;;;;;;;6.48;86.38;100513.88;6119281;28;20560;-76
2022/12/30 03:40:41;;;;;;;9.55;2.30;;;;;;;6.53;86.27;100524.88;6115981;28;20029;-77
2022/12/30 03:43:37;;;;;;;8.48;2.28;;;;;;;6.34;87.20;100506.25;6113917;28;20032;-75
2022/12/30 03:46:33;;;;;;;8.30;2.20;;;;;;;6.25;87.62;100505.19;6122569;28;20387;-77
2022/12/30 03:49:28;;;;;;;6.20;1.83;;;;;;;6.23;87.67;100522.06;6120173;28;20040;-77
2022/12/30 03:52:24;;;;;;;4.82;2.40;;;;;;;6.15;88.42;100508.69;6120353;28;20039;-76
2022/12/30 03:55:19;;;;;;;5.82;2.58;;;;;;;6.06;88.54;100512.06;6114454;28;20037;-76
2022/12/30 03:58:14;;;;;;;7.20;1.63;;;;;;;6.02;89.14;100514.09;6122371;28;20116;-77
2022/12/30 04:01:10;;;;;;;6.73;2.13;;;;;;;5.88;89.23;100506.47;6120056;28;20086;-76
2022/12/30 04:04:05;;;;;;;5.40;2.17;;;;;;;5.98;89.48;100517.94;6121555;28;20579;-76
2022/12/30 04:07:01;;;;;;;13.02;2.88;;;;;;;5.73;90.00;100486.59;6122674;28;20112;-75
2022/12/30 04:09:56;;;;;;;11.13;2.10;;;;;;;5.84;90.52;100532.13;6121371;28;20064;-76
2022/12/30 04:12:51;;;;;;;8.77;2.23;;;;;;;5.70;90.38;100514.00;6123016;28;20028;-77
2022/12/30 04:15:51;;;;;;;6.73;2.63;;;;;;;5.74;90.91;100533.81;6120835;28;20087;-77
2022/12/30 04:18:46;;;;;;;14.27;2.20;;;;;;;5.62;90.83;100521.66;6121982;28;20033;-75
2022/12/30 04:21:41;;;;;;;16.87;2.77;;;;;;;5.64;91.60;100535.50;6124392;28;20036;-75
2022/12/30 04:24:36;;;;;;;10.63;2.20;;;;;;;5.57;91.61;100529.03;6125819;28;20094;-75
2022/12/30 04:27:32;;;;;;;6.03;2.53;;;;;;;5.61;91.60;100527.00;6128560;28;20444;-75
2022/12/30 04:30:29;;;;;;;18.90;2.47;;;;;;;5.61;91.07;100527.00;6127112;28;20039;-78
2022/12/30 04:33:24;;;;;;;6.30;2.00;;;;;;;5.63;91.35;100543.50;6125507;28;20025;-76
2022/12/30 04:36:21;;;;;;;12.00;2.20;;;;;;;5.63;91.14;100539.06;6126232;28;20085;-76
2022/12/30 04:39:16;;;;;;;9.15;2.10;;;;;;;5.70;90.43;100535.03;6116569;28;20090;-75
2022/12/30 04:42:11;;;;;;;7.97;2.72;;;;;;;5.73;90.65;100553.22;6125593;28;20052;-76
2022/12/30 04:45:07;;;;;;;9.80;2.20;;;;;;;5.66;90.18;100552.00;6126579;28;20044;-76
2022/12/30 04:48:03;;;;;;;6.30;2.10;;;;;;;5.69;89.94;100549.13;6119508;28;20033;-75
2022/12/30 04:50:58;;;;;;;14.82;2.15;;;;;;;5.56;90.59;100553.66;6124938;28;20028;-75
2022/12/30 04:53:53;;;;;;;6.00;2.50;;;;;;;5.59;91.18;100563.97;6125538;28;20505;-75
2022/12/30 04:56:49;;;;;;;7.97;2.00;;;;;;;5.65;90.53;100578.44;6126022;28;20401;-76
2022/12/30 04:59:44;;;;;;;13.27;3.10;;;;;;;5.60;91.43;100576.13;6125306;28;20032;-76
2022/12/30 05:02:39;;;;;;;8.43;2.37;;;;;;;5.60;90.65;100583.22;6124693;28;20043;-76
2022/12/30 05:05:35;;;;;;;6.07;2.42;;;;;;;5.54;91.03;100583.69;6125451;28;20070;-76
2022/12/30 05:08:30;;;;;;;5.72;2.42;;;;;;;5.49;91.28;100586.63;6123283;28;20048;-78
2022/12/30 05:11:25;;;;;;;8.90;2.43;;;;;;;5.47;91.63;100596.44;6124925;28;20426;-77
2022/12/30 05:14:21;;;;;;;8.87;1.93;;;;;;;5.31;92.09;100591.50;6123418;28;20335;-76
2022/12/30 05:17:16;;;;;;;7.83;2.07;;;;;;;5.36;91.67;100599.03;6124194;28;20029;-77
2022/12/30 05:20:11;;;;;;;8.07;2.60;;;;;;;5.29;91.48;100590.78;6125432;28;20033;-77
2022/12/30 05:26:13;;;;;;;10.67;2.63;;;;;;;5.21;92.21;100608.09;6124425;28;20040;-75
2022/12/30 05:26:22;;;;;;;9.70;1.92;;;;;;;5.23;92.52;100604.38;6124357;28;20032;-76
2022/12/30 05:29:17;;;;;;;5.33;1.77;;;;;;;5.22;92.50;100599.22;6124198;28;20032;-76
2022/12/30 05:32:12;;;;;;;5.70;1.90;;;;;;;5.23;92.88;100614.91;6124156;28;20032;-75
2022/12/30 05:35:08;;;;;;;7.57;2.03;;;;;;;5.21;93.24;100616.81;6123083;28;20044;-76
2022/12/30 05:38:03;;;;;;;5.88;2.15;;;;;;;5.16;93.14;100618.97;6122564;28;20032;-76
2022/12/30 05:40:59;;;;;;;4.30;2.10;;;;;;;5.08;93.03;100620.47;6124162;28;20036;-75
2022/12/30 05:43:54;;;;;;;12.13;2.80;;;;;;;5.01;93.75;100622.69;6122486;28;20547;-76
2022/12/30 05:46:50;;;;;;;6.53;2.40;;;;;;;4.87;94.15;100611.50;6115137;28;20081;-77
2022/12/30 05:49:45;;;;;;;7.60;2.83;;;;;;;4.68;94.32;100589.22;6123217;28;20039;-76
2022/12/30 05:52:40;;;;;;;11.70;2.73;;;;;;;4.83;94.48;100616.19;6122013;28;20481;-77
2022/12/30 05:55:35;;;;;;;9.10;2.50;;;;;;;4.84;94.51;100622.28;6119832;28;20040;-76
2022/12/30 05:58:31;;;;;;;8.50;2.13;;;;;;;4.73;95.55;100621.25;6122067;28;20040;-77
2022/12/30 06:01:27;;;;;;;13.80;2.43;;;;;;;4.81;95.22;100634.66;6123357;28;20377;-77
2022/12/30 06:04:22;;;;;;;11.40;3.08;;;;;;;4.76;96.12;100628.06;6122398;28;20308;-75
2022/12/30 06:07:17;;;;;;;6.80;1.93;;;;;;;4.75;95.79;100629.03;6122715;28;20074;-76
2022/12/30 06:10:14;;;;;;;13.07;3.00;;;;;;;4.81;96.21;100645.16;6122786;28;20032;-76
2022/12/30 06:13:09;;;;;;;6.43;1.60;;;;;;;4.78;96.64;100639.31;6121939;28;20032;-76
2022/12/30 06:16:04;;;;;;;8.13;2.27;;;;;;;4.98;95.82;100656.22;6122872;28;20050;-76
2022/12/30 06:18:59;;;;;;;10.30;2.20;;;;;;;5.14;95.16;100656.78;6122995;28;20048;-77
2022/12/30 06:21:55;;;;;;;14.70;2.40;;;;;;;5.06;95.11;100646.00;6123126;28;20032;-76
2022/12/30 06:24:50;;;;;;;14.47;2.53;;;;;;;5.16;94.96;100652.28;6131561;28;20032;-75
2022/12/30 06:27:45;;;;;;;7.20;2.10;;;;;;;5.24;94.90;100652.56;6131655;28;20033;-77
2022/12/30 06:30:41;;;;;;;11.93;2.70;;;;;;;5.08;94.95;100642.31;6122328;28;20040;-77
2022/12/30 06:33:37;;;;;;;5.07;2.03;;;;;;;5.00;94.13;100635.97;6121428;28;20464;-76
2022/12/30 06:36:32;;;;;;;10.07;2.30;;;;;;;4.99;95.05;100643.00;6121540;28;20479;-78
2022/12/30 06:39:28;;;;;;;6.63;2.10;;;;;;;4.92;94.94;100638.31;6113898;28;20066;-76
2022/12/30 06:42:23;;;;;;;8.67;2.37;;;;;;;4.81;95.53;100645.16;6120982;28;20032;-77
2022/12/30 06:45:18;;;;;;;16.43;3.10;;;;;;;4.76;95.65;100642.03;6120014;28;20507;-76
2022/12/30 06:48:13;;;;;;;11.40;2.63;;;;;;;4.84;95.73;100648.53;6121954;28;20107;-76
2022/12/30 06:51:09;;;;;;;9.20;1.80;;;;;;;4.79;96.41;100636.56;6122449;28;20059;-78
2022/12/30 06:54:04;;;;;;;8.77;2.20;;;;;;;4.73;95.89;100630.91;6120765;28;20088;-74
2022/12/30 06:56:59;;;;;;;9.87;1.97;;;;;;;4.87;95.97;100643.88;6122124;28;20075;-79
2022/12/30 06:59:55;;;;;;;11.00;1.90;;;;;;;4.92;96.08;100656.72;6121992;28;20078;-76
2022/12/30 07:02:50;;;;;;;6.53;2.00;;;;;;;4.86;95.65;100642.22;6113031;28;20108;-78
2022/12/30 07:05:45;;;;;;;9.73;2.30;;;;;;;4.90;96.20;100650.69;6120580;28;20047;-77
2022/12/30 07:08:41;;;;;;;7.83;1.90;;;;;;;4.93;96.62;100655.75;6121543;28;20075;-77
2022/12/30 07:11:36;;;;;;;9.93;2.20;;;;;;;4.74;96.26;100641.31;6121618;28;20279;-77
2022/12/30 07:14:31;;;;;;;5.47;1.53;;;;;;;4.81;96.83;100668.81;6121122;28;20555;-75
2022/12/30 07:17:27;;;;;;;9.98;2.20;;;;;;;4.74;96.25;100654.44;6121676;28;20051;-75
2022/12/30 07:20:22;;;;;;;13.27;1.83;;;;;;;4.76;96.63;100656.94;6121717;28;20021;-76
2022/12/30 07:23:17;;;;;;;7.20;2.90;;;;;;;4.73;96.93;100642.25;6120919;28;20029;-77
2022/12/30 07:26:12;;;;;;;12.30;2.60;;;;;;;4.91;96.64;100665.53;6121282;28;20024;-77
2022/12/30 07:29:08;;;;;;;13.03;2.27;;;;;;;4.90;96.22;100662.06;6119746;28;20081;-76
2022/12/30 07:32:04;;;;;;;5.97;1.33;;;;;;;4.81;96.82;100650.41;6111005;28;20040;-76
2022/12/30 07:34:59;;;;;;;11.45;2.00;;;;;;;4.82;96.18;100656.53;6121764;28;20028;-75
2022/12/30 07:37:54;;;;;;;14.50;2.87;;;;;;;4.90;96.14;100664.69;6121185;28;20028;-75
2022/12/30 07:40:50;;;;;;;9.40;1.77;;;;;;;4.77;95.89;100656.00;6121557;28;20029;-76
2022/12/30 07:43:45;;;;;;;16.47;3.20;;;;;;;4.79;96.16;100659.38;6120630;28;20040;-76
2022/12/30 07:46:40;;;;;;;9.63;1.57;;;;;;;4.85;95.77;100676.47;6121779;28;20110;-75
2022/12/30 07:49:36;;;;;;;4.73;1.63;;;;;;;4.88;96.19;100663.13;6053584;27;20296;-78
2022/12/30 07:52:31;;;;;;;9.63;1.57;;;;;;;4.94;95.17;100663.53;6048921;28;20481;-77
2022/12/30 07:55:26;;;;;;;6.25;1.45;;;;;;;4.98;95.03;100664.13;6051439;28;20277;-76
2022/12/30 07:58:22;;;;;;;6.60;1.70;;;;;;;5.15;94.73;100685.59;6053911;28;20088;-75
2022/12/30 08:01:17;;;;;;;6.60;1.60;;;;;;;5.12;93.39;100682.34;6055270;28;20134;-76
2022/12/30 08:04:12;;;;;;;5.80;1.83;;;;;;;5.29;92.50;100689.84;6054156;28;20268;-76
2022/12/30 08:07:08;;;;;;;6.73;1.30;;;;;;;5.29;91.82;100666.19;6055562;28;20026;-77
2022/12/30 08:10:03;;;;;;;4.87;1.23;;;;;;;5.36;91.56;100683.16;6056560;28;20038;-76
2022/12/30 08:12:59;;;;;;;12.68;2.20;;;;;;;5.38;91.17;100681.28;6054437;28;20057;-74
2022/12/30 08:15:54;;;;;;;12.37;1.80;;;;;;;5.33;90.99;100688.66;6054277;28;20396;-77
2022/12/30 08:18:49;;;;;;;5.73;1.70;;;;;;;5.27;91.56;100683.88;6054239;28;20330;-76
2022/12/30 08:21:45;;;;;;;7.23;2.60;;;;;;;5.20;92.00;100666.84;6048662;28;20033;-75
2022/12/30 08:24:40;;;;;;;5.83;1.60;;;;;;;5.17;91.85;100661.81;6053527;28;20030;-74
2022/12/30 08:27:35;;;;;;;4.95;1.30;;;;;;;5.31;92.38;100669.53;6054081;28;20798;-76
2022/12/30 08:30:31;;;;;;;9.70;1.70;;;;;;;5.33;91.65;100659.72;6050916;28;20469;-76
2022/12/30 08:33:26;;;;;;;7.82;1.92;;;;;;;5.50;91.17;100655.84;6040993;28;20035;-77
2022/12/30 08:36:24;;;;;;;14.83;2.40;;;;;;;5.64;90.87;100655.66;6054516;28;20035;-76
2022/12/30 08:39:19;;;;;;;4.93;1.63;;;;;;;5.83;90.02;100662.03;6055313;28;20033;-76
2022/12/30 08:42:15;;;;;;;4.82;1.17;;;;;;;5.95;89.13;100661.13;6052393;28;20512;-77
2022/12/30 08:45:10;;;;;;;6.30;1.63;;;;;;;6.08;88.49;100661.03;6053569;28;20095;-76
2022/12/30 08:48:06;;;;;;;12.37;1.70;;;;;;;6.20;87.93;100662.69;6052531;28;20092;-76
2022/12/30 08:51:01;;;;;;;11.30;1.47;;;;;;;6.32;87.59;100668.81;6053904;28;20030;-75
2022/12/30 08:53:57;;;;;;;6.88;1.00;;;;;;;6.40;86.73;100661.13;6054164;28;20089;-77
2022/12/30 08:56:52;;;;;;;7.20;1.40;;;;;;;6.39;86.72;100670.81;6056528;28;20034;-74
2022/12/30 08:59:47;;;;;;;10.20;1.37;;;;;;;6.38;86.59;100668.31;6054623;28;20045;-75
2022/12/30 09:02:43;;;;;;;6.97;1.93;;;;;;;6.38;86.57;100663.91;6052082;28;20030;-77
2022/12/30 09:05:38;;;;;;;9.17;1.27;;;;;;;6.49;86.21;100660.41;6052553;28;20026;-77
2022/12/30 09:08:34;;;;;;;5.05;1.40;;;;;;;6.56;86.31;100656.34;6054787;28;20738;-75
2022/12/30 09:11:31;;;;;;;11.77;1.52;;;;;;;6.68;85.33;100676.44;6053783;28;20038;-76
2022/12/30 09:14:26;;;;;;;8.95;2.03;;;;;;;6.65;85.24;100671.41;6052567;28;20528;-79
2022/12/30 09:17:22;;;;;;;4.72;1.38;;;;;;;6.61;84.94;100675.25;6041244;28;20088;-76
2022/12/30 09:20:17;;;;;;;15.38;2.08;;;;;;;6.67;85.34;100680.03;6053648;28;20037;-77
2022/12/30 09:23:13;;;;;;;9.97;1.20;;;;;;;6.64;84.99;100663.63;6053214;28;20030;-74
2022/12/30 09:26:09;;;;;;;6.75;1.17;;;;;;;6.65;84.91;100671.41;6050982;28;20783;-75
2022/12/30 09:29:04;;;;;;;5.93;1.10;;;;;;;6.79;84.83;100704.56;6053363;28;20037;-76
2022/12/30 09:31:59;;;;;;;10.67;1.60;;;;;;;6.80;84.67;100683.34;6054460;28;20029;-76
2022/12/30 09:34:55;;;;;;;14.27;4.73;;;;;;;6.94;84.28;100682.25;6051749;28;20120;-77
2022/12/30 09:37:50;;;;;;;7.70;1.03;;;;;;;6.97;83.26;100668.81;6053944;28;20041;-77
2022/12/30 09:41:02;;;;;;;8.80;1.13;;;;;;;7.13;82.88;100678.00;6068561;28;20029;-78
2022/12/30 09:44:18;;;;;;;5.05;1.10;;;;;;;6.89;83.03;100658.91;6041122;28;20072;-74
2022/12/30 09:47:50;;;;;;;10.35;2.17;;;;;;;7.15;82.92;100686.63;6052509;28;20114;-74
2022/12/30 09:51:01;;;;;;;6.50;1.70;;;;;;;7.09;83.33;100673.94;6011436;28;20046;-76
2022/12/30 09:54:05;;;;;;;9.75;1.65;;;;;;;7.13;83.01;100678.00;6039614;28;20104;-76
2022/12/30 10:00:22;;;;;;;9.18;1.60;;;;;;;7.04;82.62;100643.63;6064481;28;20038;-75
2022/12/30 10:03:20;;;;;;;5.10;1.60;;;;;;;7.09;83.05;100652.84;6051980;28;20087;-76
2022/12/30 10:06:21;;;;;;;9.15;2.00;;;;;;;7.00;82.75;100645.69;6046087;28;20030;-76
2022/12/30 10:09:36;;;;;;;11.43;2.10;;;;;;;7.02;83.25;100635.84;6053672;28;20053;-75
2022/12/30 10:12:54;;;;;;;11.25;1.58;;;;;;;7.08;82.90;100616.91;6051621;28;20062;-76
2022/12/30 10:16:03;;;;;;;10.18;1.50;;;;;;;7.18;82.18;100644.19;6052204;28;20469;-76
2022/12/30 10:19:26;;;;;;;9.60;1.55;;;;;;;7.33;81.58;100633.34;6068067;28;20041;-74
2022/12/30 10:22:37;;;;;;;6.07;1.20;;;;;;;7.38;80.71;100624.06;6031642;28;20045;-78
2022/12/30 10:25:41;;;;;;;5.47;1.10;;;;;;;7.40;80.28;100618.66;6050192;28;20069;-75
2022/12/30 10:28:38;;;;;;;6.30;1.23;;;;;;;7.33;81.02;100621.00;6050897;28;20060;-77
2022/12/30 10:31:35;;;;;;;7.10;1.80;;;;;;;7.34;80.58;100595.47;6048893;28;20436;-77
2022/12/30 10:34:30;;;;;;;7.03;1.17;;;;;;;7.43;80.37;100586.75;6050213;28;20092;-76
2022/12/30 10:37:33;;;;;;;7.90;1.80;;;;;;;7.47;80.39;100611.94;6051463;28;20034;-75
2022/12/30 10:40:50;;;;;;;10.88;1.38;;;;;;;7.60;80.08;100602.00;6065408;28;20473;-75
2022/12/30 10:44:18;;;;;;;11.00;1.40;;;;;;;7.54;79.85;100576.13;6042428;28;20029;-76
2022/12/30 10:47:57;;;;;;;7.95;2.00;;;;;;;7.57;79.98;100570.59;6036515;28;20056;-76
2022/12/30 10:50:53;;;;;;;9.15;1.65;;;;;;;7.54;79.61;100555.03;6030850;28;20091;-76
2022/12/30 10:53:50;;;;;;;6.00;1.30;;;;;;;7.53;79.33;100543.63;6050130;28;20041;-77
2022/12/30 10:56:45;;;;;;;4.63;1.35;;;;;;;7.75;79.00;100550.53;6049772;28;20057;-75
2022/12/30 10:59:41;;;;;;;6.90;1.10;;;;;;;7.78;79.08;100529.16;6035428;28;20125;-75
2022/12/30 11:02:38;;;;;;;5.65;1.30;;;;;;;7.72;79.07;100527.06;6049664;28;20029;-75
2022/12/30 11:05:35;;;;;;;7.15;1.42;;;;;;;7.59;79.28;100523.81;6050827;28;20033;-75
2022/12/30 11:08:30;;;;;;;7.05;1.20;;;;;;;7.64;80.20;100522.44;6048304;28;20469;-77
2022/12/30 11:14:42;;;;;;;6.77;1.00;;;;;;;7.66;79.20;100511.78;6050189;28;20112;-77
2022/12/30 11:14:42;;;;;;;6.10;1.80;;;;;;;7.57;79.96;100510.75;6048894;28;20038;-78
2022/12/30 11:17:45;;;;;;;7.28;2.15;;;;;;;7.52;79.61;100483.09;6047758;28;20029;-77
2022/12/30 11:20:41;;;;;;;8.32;1.52;;;;;;;7.66;79.58;100503.84;6065009;28;20643;-75
2022/12/30 11:23:38;;;;;;;8.77;2.20;;;;;;;7.62;79.79;100486.59;6049732;28;20420;-77
2022/12/30 11:26:34;;;;;;;10.48;1.85;;;;;;;7.66;79.60;100493.31;6065321;28;20581;-76
2022/12/30 11:29:32;;;;;;;7.22;2.22;;;;;;;7.73;79.07;100486.50;6044475;28;20034;-79
2022/12/30 11:32:28;;;;;;;12.65;2.58;;;;;;;7.68;79.22;100478.16;6049104;28;20065;-76
2022/12/30 11:35:40;;;;;;;5.17;1.43;;;;;;;7.65;79.80;100444.97;6050511;28;20037;-76
2022/12/30 11:38:40;;;;;;;6.32;1.80;;;;;;;7.80;78.60;100446.25;6050383;28;20026;-76
2022/12/30 11:41:56;;;;;;;5.40;1.60;;;;;;;8.01;77.78;100464.66;6051080;28;20112;-75
2022/12/30 11:45:12;;;;;;;5.03;1.63;;;;;;;8.05;77.18;100454.63;6054353;28;20029;-77
2022/12/30 11:48:19;;;;;;;5.55;1.40;;;;;;;8.01;76.97;100426.84;6052283;28;20046;-76
2022/12/30 11:51:20;;;;;;;5.00;1.50;;;;;;;8.09;77.10;100419.91;6042185;28;20121;-77
2022/12/30 11:54:18;;;;;;;5.90;1.95;;;;;;;8.15;76.04;100394.75;6041129;28;20424;-75
2022/12/30 11:57:23;;;;;;;7.70;2.42;;;;;;;8.21;75.62;100392.38;6052738;28;20113;-75
2022/12/30 12:00:18;;;;;;;7.90;2.10;;;;;;;8.33;75.74;100396.59;6044934;28;20041;-75
2022/12/30 12:03:15;;;;;;;6.10;1.50;;;;;;;8.28;75.43;100363.66;6052718;28;20057;-78
2022/12/30 12:06:11;;;;;;;6.55;2.28;;;;;;;8.30;75.38;100367.81;6052626;28;20292;-77
2022/12/30 12:09:14;;;;;;;5.03;1.80;;;;;;;8.43;74.99;100371.97;6052392;28;20038;-76
2022/12/30 12:12:12;;;;;;;4.50;1.25;;;;;;;8.46;75.21;100361.94;6053713;28;20029;-76
2022/12/30 12:15:22;;;;;;;7.13;1.50;;;;;;;8.49;74.64;100352.91;6051001;28;20538;-78
2022/12/30 12:18:33;;;;;;;5.10;1.38;;;;;;;8.33;75.31;100338.47;6049448;28;20065;-76
2022/12/30 12:21:29;;;;;;;7.25;1.50;;;;;;;8.31;75.26;100335.16;6053572;28;20127;-75
2022/12/30 12:24:36;;;;;;;7.15;1.48;;;;;;;8.27;75.89;100328.47;6053895;28;20038;-77
2022/12/30 12:27:32;;;;;;;3.78;1.35;;;;;;;8.30;76.27;100340.56;6038583;28;20061;-78
2022/12/30 12:30:54;;;;;;;3.60;1.30;;;;;;;8.21;76.17;100321.06;6066737;28;20442;-78
2022/12/30 12:34:25;;;;;;;7.43;1.52;;;;;;;8.16;76.66;100303.97;6050198;28;20049;-78
2022/12/30 12:37:55;;;;;;;4.00;1.55;;;;;;;8.29;76.79;100305.38;6052425;28;20530;-76
2022/12/30 12:41:12;;;;;;;7.63;1.63;;;;;;;8.29;76.87;100305.38;6039776;28;20137;-76
2022/12/30 12:44:23;;;;;;;3.58;1.20;;;;;;;8.29;76.74;100300.09;6041703;28;20046;-74
2022/12/30 12:47:50;;;;;;;5.05;0.95;;;;;;;8.32;76.41;100278.69;6051596;28;20061;-76
2022/12/30 12:50:56;;;;;;;5.13;1.25;;;;;;;8.29;76.64;100278.97;6051719;28;20037;-74
2022/12/30 12:54:32;;;;;;;5.28;1.90;;;;;;;8.26;76.84;100263.38;6052999;28;20041;-75
2022/12/30 12:57:57;;;;;;;3.28;1.10;;;;;;;8.28;76.96;100277.31;6052040;28;20122;-78
2022/12/30 13:00:58;;;;;;;10.60;2.67;;;;;;;8.29;76.68;100259.63;6046268;28;20030;-78
2022/12/30 13:04:48;;;;;;;4.50;1.40;;;;;;;8.31;76.68;100260.34;6050856;28;20149;-75
2022/12/30 13:08:12;;;;;;;7.75;1.50;;;;;;;8.26;76.88;100241.44;6022637;28;20053;-77
2022/12/30 13:11:26;;;;;;;6.43;1.55;;;;;;;8.28;76.72;100242.97;6045256;28;20409;-75
2022/12/30 13:14:33;;;;;;;4.95;1.70;;;;;;;8.25;76.81;100227.38;6040304;28;20045;-74
2022/12/30 13:17:33;;;;;;;8.35;2.00;;;;;;;8.20;77.19;100203.22;6044271;28;20034;-74
2022/12/30 13:20:30;;;;;;;7.47;1.52;;;;;;;8.30;76.80;100217.25;6053208;28;20532;-76
2022/12/30 13:23:28;;;;;;;2.90;1.10;;;;;;;8.23;77.07;100210.84;6052133;28;20026;-77
2022/12/30 13:26:25;;;;;;;7.97;1.30;;;;;;;8.26;76.81;100199.97;6046554;28;20038;-75
2022/12/30 13:29:21;;;;;;;5.78;1.40;;;;;;;8.23;77.16;100195.00;6048310;28;20042;-75
2022/12/30 13:32:47;;;;;;;4.95;1.17;;;;;;;8.32;76.92;100207.38;6051598;28;20054;-75
2022/12/30 13:36:00;;;;;;;6.88;1.35;;;;;;;8.29;77.21;100191.78;6051236;28;20026;-76
2022/12/30 13:39:26;;;;;;;4.90;1.15;;;;;;;8.29;77.17;100175.94;6049204;28;20037;-76
2022/12/30 13:42:43;;;;;;;6.15;1.40;;;;;;;8.35;77.20;100187.75;6051833;28;20025;-75
2022/12/30 13:45:47;;;;;;;3.83;1.20;;;;;;;8.27;77.31;100175.25;6050891;28;20050;-75
2022/12/30 13:48:59;;;;;;;4.05;1.45;;;;;;;8.28;77.24;100165.53;6051439;28;20038;-79
2022/12/30 13:51:58;;;;;;;6.40;1.35;;;;;;;8.22;77.47;100163.44;6052894;28;20033;-75
2022/12/30 13:54:58;;;;;;;4.75;1.27;;;;;;;8.18;76.97;100149.69;6076859;28;20469;-75
2022/12/30 13:58:05;;;;;;;5.07;1.17;;;;;;;8.32;76.84;100183.59;6052966;28;20109;-78
2022/12/30 14:01:18;;;;;;;;;;;;;;;8.35;76.46;100169.25;6053051;28;20474;-77
2022/12/30 14:04:30;;;;;;;4.80;1.15;;;;;;;8.30;76.20;100153.00;6051477;28;19910;-77
2022/12/30 14:07:37;;;;;;;4.35;1.02;;;;;;;8.33;76.72;100150.91;6052063;28;20026;-77
2022/12/30 14:10:45;;;;;;;6.07;1.50;;;;;;;8.28;76.63;100154.97;6048970;28;20026;-75
2022/12/30 14:13:45;;;;;;;7.13;1.65;;;;;;;8.30;76.93;100161.78;6046403;28;20038;-76
2022/12/30 14:17:10;;;;;;;4.82;1.25;;;;;;;8.24;76.90;100135.06;6063531;28;20069;-74
2022/12/30 14:20:23;;;;;;;7.22;1.38;;;;;;;8.27;76.64;100143.56;6051752;28;20520;-73
2022/12/30 14:23:48;;;;;;;7.45;1.30;;;;;;;8.26;76.80;100136.59;6042832;28;20117;-74
2022/12/30 14:26:43;;;;;;;7.38;1.10;;;;;;;8.15;77.42;100120.91;6063936;28;20026;-76
2022/12/30 14:29:39;;;;;;;5.57;1.07;;;;;;;8.17;77.38;100095.22;6047856;28;20064;-76
2022/12/30 14:32:34;;;;;;;6.57;1.30;;;;;;;8.24;76.99;100075.16;6049824;28;20378;-76
2022/12/30 14:35:29;;;;;;;4.53;1.30;;;;;;;8.33;76.31;100074.31;6043122;28;20288;-77
2022/12/30 14:38:29;;;;;;;3.60;1.17;;;;;;;8.32;76.71;100061.25;6048771;28;20401;-75
2022/12/30 14:41:36;;;;;;;3.95;1.23;;;;;;;8.34;76.57;100051.38;6049329;28;20026;-75
2022/12/30 14:44:32;;;;;;;8.05;1.80;;;;;;;8.31;76.59;100049.88;6045286;28;20117;-76
2022/12/30 14:47:41;;;;;;;5.13;1.00;;;;;;;8.22;77.16;100045.44;6048369;28;20034;-76
2022/12/30 14:50:36;;;;;;;5.15;1.25;;;;;;;8.05;77.41;100009.25;6051232;28;20040;-77
2022/12/30 14:53:31;;;;;;;3.08;1.20;;;;;;;8.15;77.00;100017.94;6049192;28;20057;-76
2022/12/30 14:56:27;;;;;;;4.10;1.00;;;;;;;8.22;76.16;100026.94;6049275;28;20072;-77
2022/12/30 14:59:23;;;;;;;6.93;0.80;;;;;;;8.23;75.54;100019.84;6050591;28;20090;-79
2022/12/30 15:02:24;;;;;;;7.90;1.13;;;;;;;8.21;74.84;100012.06;6049702;28;20629;-75
2022/12/30 15:05:26;;;;;;;5.30;1.30;;;;;;;8.25;74.61;100002.88;6049687;28;20436;-75